Time;durP1;ratioP1;P1;durP2;ratioP2;P2;SDS_P1;SDS_P2;PMS_P1;PMS_P2;Temp;Humidity;BMP_temperature;BMP_pressure;BME280_temperature;BME280_humidity;BME280_pressure;Samples;Min_cycle;Max_cycle;Signal;HPM_P1;HPM_P2
2024/01/06 00:00:28;;;;;;;0.90;0.90;;;;;;;7.65;100.00;99016.56;4957201;28;20110;-70
2024/01/06 00:02:54;;;;;;;0.80;0.80;;;;;;;7.68;100.00;99005.00;4951935;28;20045;-70
2024/01/06 00:05:19;;;;;;;0.88;0.88;;;;;;;7.71;100.00;99013.69;4949179;29;20079;-71
2024/01/06 00:07:45;;;;;;;0.80;0.80;;;;;;;7.70;100.00;99013.75;4937365;28;20565;-70
2024/01/06 00:10:10;;;;;;;0.90;0.90;;;;;;;7.64;100.00;99006.88;4948589;28;20557;-71
2024/01/06 00:12:36;;;;;;;0.80;0.80;;;;;;;7.65;100.00;99015.69;4943771;28;20031;-70
2024/01/06 00:15:02;;;;;;;0.80;0.80;;;;;;;7.66;100.00;99007.69;4951429;28;20038;-70
2024/01/06 00:17:27;;;;;;;0.70;0.70;;;;;;;7.65;100.00;99013.94;4947194;28;20035;-72
2024/01/06 00:19:53;;;;;;;0.80;0.80;;;;;;;7.67;100.00;99009.44;4952510;28;20038;-71
2024/01/06 00:22:19;;;;;;;0.70;0.70;;;;;;;7.67;100.00;99009.44;4948661;29;20031;-71
2024/01/06 00:24:44;;;;;;;0.73;0.73;;;;;;;7.68;100.00;99005.88;4937995;28;20036;-69
2024/01/06 00:27:09;;;;;;;0.80;0.80;;;;;;;7.67;100.00;99016.50;4946738;29;20459;-70
2024/01/06 00:29:35;;;;;;;0.70;0.70;;;;;;;7.66;100.00;99013.00;4945883;28;20022;-69
2024/01/06 00:32:00;;;;;;;0.70;0.70;;;;;;;7.63;100.00;99015.75;4949916;28;20033;-70
2024/01/06 00:34:26;;;;;;;0.80;0.80;;;;;;;7.56;100.00;99005.47;4952941;28;20023;-70
2024/01/06 00:36:51;;;;;;;0.80;0.80;;;;;;;7.63;100.00;99009.59;4930422;29;20037;-69
2024/01/06 00:39:17;;;;;;;0.80;0.80;;;;;;;7.42;100.00;98971.56;4942719;28;20035;-70
2024/01/06 00:41:42;;;;;;;0.80;0.80;;;;;;;7.59;100.00;99011.53;4943441;29;20023;-71
2024/01/06 00:44:07;;;;;;;0.70;0.70;;;;;;;7.57;100.00;99013.34;4947400;28;20046;-70
2024/01/06 00:46:33;;;;;;;0.80;0.80;;;;;;;7.31;100.00;98968.47;4966344;28;20030;-70
2024/01/06 00:48:59;;;;;;;0.80;0.80;;;;;;;7.50;100.00;99011.84;4951447;28;20109;-70
2024/01/06 00:51:24;;;;;;;0.70;0.70;;;;;;;7.45;100.00;99007.63;4946176;28;20034;-70
2024/01/06 00:53:49;;;;;;;0.70;0.70;;;;;;;7.44;100.00;99011.19;4948184;29;20026;-71
2024/01/06 00:56:15;;;;;;;0.80;0.80;;;;;;;7.42;100.00;99008.59;4949698;28;20114;-70
2024/01/06 00:58:40;;;;;;;0.82;0.82;;;;;;;7.44;100.00;99016.47;4932248;28;20047;-70
2024/01/06 01:01:06;;;;;;;0.80;0.80;;;;;;;7.38;100.00;98991.09;4928948;29;20518;-70
2024/01/06 01:03:31;;;;;;;0.65;0.65;;;;;;;7.52;100.00;99020.59;4940237;29;20087;-70
2024/01/06 01:05:57;;;;;;;0.90;0.90;;;;;;;7.50;100.00;99025.06;4948819;29;20450;-69
2024/01/06 01:08:23;;;;;;;0.80;0.80;;;;;;;7.49;100.00;99036.56;4946544;28;20031;-70
2024/01/06 01:10:48;;;;;;;0.70;0.70;;;;;;;7.49;100.00;99031.28;4946934;29;20114;-70
2024/01/06 01:13:13;;;;;;;0.88;0.88;;;;;;;7.49;100.00;99033.94;4949017;29;20550;-70
2024/01/06 01:15:39;;;;;;;0.80;0.80;;;;;;;7.37;100.00;99018.50;4946348;29;20066;-71
2024/01/06 01:18:04;;;;;;;0.75;0.75;;;;;;;7.55;100.00;99046.94;4929683;29;20019;-68
2024/01/06 01:20:29;;;;;;;0.80;0.80;;;;;;;7.51;100.00;99040.00;4929663;29;20468;-70
2024/01/06 01:22:55;;;;;;;0.82;0.82;;;;;;;7.53;100.00;99048.75;4918697;29;20032;-70
2024/01/06 01:25:20;;;;;;;0.80;0.80;;;;;;;7.53;100.00;99048.75;4935583;29;20438;-71
2024/01/06 01:27:46;;;;;;;0.88;0.88;;;;;;;7.51;100.00;99049.75;4946537;28;20027;-70
2024/01/06 01:30:11;;;;;;;0.70;0.70;;;;;;;7.48;100.00;99055.16;4930000;28;20032;-71
2024/01/06 01:32:37;;;;;;;0.80;0.80;;;;;;;7.50;100.00;99056.81;4943171;29;20031;-71
2024/01/06 01:35:03;;;;;;;0.60;0.60;;;;;;;7.55;100.00;99069.88;4934175;29;20031;-70
2024/01/06 01:37:28;;;;;;;0.85;0.85;;;;;;;7.54;100.00;99063.75;4957668;28;20574;-71
2024/01/06 01:39:54;;;;;;;0.75;0.75;;;;;;;7.51;100.00;99071.75;4937757;29;20031;-71
2024/01/06 01:42:19;;;;;;;0.70;0.70;;;;;;;7.50;100.00;99072.69;4927399;29;20424;-69
2024/01/06 01:44:44;;;;;;;0.80;0.80;;;;;;;7.47;100.00;99083.38;4928582;29;20741;-70
2024/01/06 01:47:10;;;;;;;0.70;0.70;;;;;;;7.48;100.00;99085.09;4952843;28;20036;-70
2024/01/06 01:49:36;;;;;;;0.90;0.90;;;;;;;7.50;100.00;99083.28;4947245;29;20067;-70
2024/01/06 01:52:02;;;;;;;0.75;0.75;;;;;;;7.48;100.00;99082.44;4948162;28;20119;-70
2024/01/06 01:54:27;;;;;;;0.90;0.90;;;;;;;7.49;100.00;99085.97;4947778;29;20110;-70
2024/01/06 01:56:53;;;;;;;0.90;0.90;;;;;;;7.51;100.00;99092.94;4940929;29;20134;-70
2024/01/06 01:59:19;;;;;;;0.77;0.77;;;;;;;7.49;100.00;99096.56;4960319;28;20037;-71
2024/01/06 02:01:47;;;;;;;0.80;0.80;;;;;;;7.47;100.00;99091.31;4967174;28;20031;-72
2024/01/06 02:04:13;;;;;;;0.90;0.90;;;;;;;7.48;100.00;99098.31;4963716;28;20042;-71
2024/01/06 02:06:38;;;;;;;0.80;0.80;;;;;;;7.42;100.00;99090.63;4967057;28;20054;-71
2024/01/06 02:09:04;;;;;;;0.80;0.80;;;;;;;7.39;100.00;99100.44;4967439;28;20621;-67
2024/01/06 02:11:29;;;;;;;0.90;0.90;;;;;;;7.40;100.00;99103.03;4963886;28;20030;-70
2024/01/06 02:13:55;;;;;;;0.82;0.82;;;;;;;7.34;100.00;99105.91;4969826;28;20046;-70
2024/01/06 02:16:20;;;;;;;0.70;0.70;;;;;;;7.32;100.00;99105.06;4959268;28;20054;-70
2024/01/06 02:18:46;;;;;;;0.90;0.90;;;;;;;7.10;100.00;99085.53;4962917;28;20129;-70
2024/01/06 02:21:11;;;;;;;0.80;0.80;;;;;;;7.33;100.00;99108.59;4977727;28;20064;-71
2024/01/06 02:23:37;;;;;;;0.80;0.80;;;;;;;7.34;100.00;99111.19;4949273;28;20531;-71
2024/01/06 02:26:03;;;;;;;0.80;0.80;;;;;;;7.08;100.00;99073.31;4945961;29;20035;-70
2024/01/06 02:28:28;;;;;;;0.70;0.70;;;;;;;7.38;100.00;99112.78;4948906;28;20070;-71
2024/01/06 02:30:54;;;;;;;0.80;0.80;;;;;;;7.40;100.00;99115.38;4947960;28;20023;-69
2024/01/06 02:33:19;;;;;;;0.80;0.80;;;;;;;7.15;100.00;99080.97;4964224;28;20026;-72
2024/01/06 02:35:48;;;;;;;0.70;0.70;;;;;;;7.35;100.00;99117.31;4931908;29;20027;-70
2024/01/06 02:38:13;;;;;;;0.70;0.70;;;;;;;7.33;100.00;99125.31;4947003;29;20027;-71
2024/01/06 02:40:38;;;;;;;0.80;0.80;;;;;;;7.28;100.00;99132.53;4946017;28;20034;-71
2024/01/06 02:43:04;;;;;;;0.80;0.80;;;;;;;7.29;100.00;99134.28;4967227;28;20031;-66
2024/01/06 02:45:30;;;;;;;0.60;0.60;;;;;;;7.25;100.00;99135.28;4967238;28;20479;-70
2024/01/06 02:47:55;;;;;;;1.00;1.00;;;;;;;7.22;100.00;99135.38;4950231;28;20035;-69
2024/01/06 02:50:20;;;;;;;0.90;0.90;;;;;;;7.19;100.00;99142.56;4958968;28;20480;-70
2024/01/06 02:52:46;;;;;;;0.80;0.80;;;;;;;7.12;100.00;99144.53;4986113;28;20037;-69
2024/01/06 02:55:12;;;;;;;0.98;0.98;;;;;;;7.12;100.00;99147.19;4974740;28;20432;-66
2024/01/06 02:57:38;;;;;;;0.80;0.80;;;;;;;7.09;100.00;99142.00;4959693;28;20061;-70
2024/01/06 03:00:04;;;;;;;0.80;0.80;;;;;;;7.07;100.00;99158.84;4967053;28;20090;-70
2024/01/06 03:02:29;;;;;;;0.93;0.93;;;;;;;7.05;100.00;99145.63;4964983;28;20015;-70
2024/01/06 03:04:55;;;;;;;0.70;0.70;;;;;;;7.09;100.00;99157.00;4970544;28;20097;-71
2024/01/06 03:07:21;;;;;;;0.70;0.70;;;;;;;7.06;100.00;99152.69;4970476;28;20030;-70
2024/01/06 03:09:46;;;;;;;0.60;0.60;;;;;;;7.12;100.00;99152.47;4966899;28;20020;-72
2024/01/06 03:12:12;;;;;;;0.90;0.90;;;;;;;7.09;100.00;99157.00;4952154;28;20027;-70
2024/01/06 03:14:38;;;;;;;0.77;0.77;;;;;;;7.12;100.00;99157.75;4950850;28;20058;-70
2024/01/06 03:17:04;;;;;;;0.90;0.90;;;;;;;7.12;100.00;99152.47;4956701;28;20027;-70
2024/01/06 03:19:30;;;;;;;0.82;0.82;;;;;;;7.09;100.00;99149.06;4949794;29;20491;-71
2024/01/06 03:21:56;;;;;;;0.80;0.80;;;;;;;6.88;100.00;99103.03;4934098;28;20123;-71
2024/01/06 03:24:22;;;;;;;0.70;0.70;;;;;;;7.11;100.00;99145.47;4972431;28;20082;-71
2024/01/06 03:26:48;;;;;;;0.82;0.82;;;;;;;7.04;100.00;99151.84;4968588;28;20073;-71
2024/01/06 03:29:13;;;;;;;0.82;0.82;;;;;;;7.04;100.00;99143.94;4965154;28;20121;-70
2024/01/06 03:31:45;;;;;;;0.70;0.70;;;;;;;7.06;100.00;99143.88;4972770;28;20114;-71
2024/01/06 03:34:11;;;;;;;0.80;0.80;;;;;;;6.64;100.00;99080.03;4961555;28;20027;-70
2024/01/06 03:36:40;;;;;;;0.80;0.80;;;;;;;7.03;100.00;99152.78;4956978;28;20031;-70
2024/01/06 03:39:06;;;;;;;0.80;0.80;;;;;;;7.11;100.00;99150.75;4950793;28;20039;-71
2024/01/06 03:41:31;;;;;;;0.80;0.80;;;;;;;7.13;100.00;99167.44;4953204;28;20615;-70
2024/01/06 03:43:57;;;;;;;0.80;0.80;;;;;;;7.05;100.00;99150.94;4955549;28;20030;-71
2024/01/06 03:46:23;;;;;;;0.75;0.75;;;;;;;7.14;100.00;99155.94;4969510;28;20038;-71
2024/01/06 03:48:48;;;;;;;0.77;0.77;;;;;;;7.14;100.00;99160.34;4957326;28;20027;-71
2024/01/06 03:51:14;;;;;;;0.80;0.80;;;;;;;7.15;100.00;99152.38;4955706;28;20030;-71
2024/01/06 03:53:42;;;;;;;0.80;0.80;;;;;;;6.73;100.00;99079.75;4980974;28;20526;-70
2024/01/06 03:56:07;;;;;;;0.80;0.80;;;;;;;7.17;100.00;99145.25;4954699;28;20136;-71
2024/01/06 03:58:33;;;;;;;0.80;0.80;;;;;;;7.18;100.00;99152.25;4931855;29;20093;-70
2024/01/06 04:00:59;;;;;;;0.95;0.95;;;;;;;7.25;100.00;99161.72;4933091;29;20488;-71
2024/01/06 04:03:25;;;;;;;0.82;0.82;;;;;;;7.30;100.00;99151.88;4929813;29;20031;-69
2024/01/06 04:05:50;;;;;;;0.80;0.80;;;;;;;7.30;100.00;99151.88;4941103;29;20071;-70
2024/01/06 04:08:16;;;;;;;0.80;0.80;;;;;;;7.31;100.00;99158.91;4930229;29;20028;-70
2024/01/06 04:10:41;;;;;;;0.70;0.70;;;;;;;7.32;100.00;99159.75;4935978;28;20035;-71
2024/01/06 04:13:07;;;;;;;0.70;0.70;;;;;;;7.27;100.00;99162.56;4929784;29;20751;-71
2024/01/06 04:15:33;;;;;;;0.80;0.80;;;;;;;7.01;100.00;99111.44;4944042;29;20052;-70
2024/01/06 04:18:02;;;;;;;0.80;0.80;;;;;;;7.29;100.00;99159.84;4947638;29;20031;-70
2024/01/06 04:20:28;;;;;;;0.80;0.80;;;;;;;7.08;100.00;99132.34;4941991;28;20035;-69
2024/01/06 04:22:53;;;;;;;0.90;0.90;;;;;;;7.25;100.00;99158.25;4937484;28;20030;-70
2024/01/06 04:25:19;;;;;;;0.70;0.70;;;;;;;7.26;100.00;99150.25;4946638;29;20027;-71
2024/01/06 04:27:46;;;;;;;0.80;0.80;;;;;;;6.99;100.00;99114.13;4944893;29;20566;-69
2024/01/06 04:30:12;;;;;;;0.80;0.80;;;;;;;7.37;100.00;99163.97;4948978;29;20035;-69
2024/01/06 04:32:38;;;;;;;0.80;0.80;;;;;;;7.35;100.00;99162.28;4945454;29;20450;-70
2024/01/06 04:35:03;;;;;;;0.90;0.90;;;;;;;7.33;100.00;99159.69;4944045;29;20030;-71
2024/01/06 04:37:29;;;;;;;0.80;0.80;;;;;;;7.35;100.00;99168.44;4931130;29;20023;-71
2024/01/06 04:39:54;;;;;;;0.90;0.90;;;;;;;7.37;100.00;99161.34;4944299;29;20042;-69
2024/01/06 04:42:22;;;;;;;0.73;0.73;;;;;;;7.44;100.00;99154.94;4929945;29;20027;-70
2024/01/06 04:44:47;;;;;;;0.80;0.80;;;;;;;7.45;100.00;99155.78;4929532;29;20027;-70
2024/01/06 04:47:13;;;;;;;0.75;0.75;;;;;;;7.47;100.00;99160.13;4961095;28;20031;-69
2024/01/06 04:49:38;;;;;;;0.70;0.70;;;;;;;7.25;100.00;99119.41;4938773;29;20766;-70
2024/01/06 04:52:04;;;;;;;0.70;0.70;;;;;;;7.53;100.00;99153.72;4948494;28;20095;-70
2024/01/06 04:54:29;;;;;;;0.73;0.73;;;;;;;7.54;100.00;99147.53;4946448;29;20102;-70
2024/01/06 04:56:55;;;;;;;0.85;0.85;;;;;;;7.51;100.00;99161.72;4906991;28;1151549;-70
2024/01/06 04:59:21;;;;;;;0.90;0.90;;;;;;;7.53;100.00;99153.72;4948852;29;20043;-70
2024/01/06 05:01:46;;;;;;;0.80;0.80;;;;;;;7.53;100.00;99164.31;4933800;29;20035;-70
2024/01/06 05:04:12;;;;;;;0.93;0.93;;;;;;;7.56;100.00;99157.13;4929613;29;20460;-70
2024/01/06 05:06:37;;;;;;;0.70;0.70;;;;;;;7.59;99.89;99154.41;4928809;29;20035;-71
2024/01/06 05:09:03;;;;;;;0.80;0.80;;;;;;;7.64;100.00;99156.88;4929506;29;20059;-70
2024/01/06 05:11:29;;;;;;;0.90;0.90;;;;;;;7.51;99.65;99134.41;4941576;29;20023;-70
2024/01/06 05:13:54;;;;;;;0.80;0.80;;;;;;;7.66;100.00;99161.19;4930532;29;20091;-71
2024/01/06 05:16:20;;;;;;;0.77;0.77;;;;;;;7.66;99.88;99153.25;4939006;29;20486;-70
2024/01/06 05:18:45;;;;;;;0.80;0.80;;;;;;;7.67;99.96;99152.38;4911045;29;20031;-70
2024/01/06 05:21:10;;;;;;;0.80;0.80;;;;;;;7.68;100.00;99153.19;4931925;28;20109;-70
2024/01/06 05:23:36;;;;;;;0.70;0.70;;;;;;;7.66;100.00;99155.91;4945242;29;20038;-71
2024/01/06 05:26:01;;;;;;;0.70;0.70;;;;;;;7.62;100.00;99150.78;4943638;28;20061;-71
2024/01/06 05:28:27;;;;;;;0.80;0.80;;;;;;;7.64;99.80;99152.44;4948705;29;20038;-70
2024/01/06 05:30:52;;;;;;;0.80;0.80;;;;;;;7.73;99.88;99156.56;4931192;29;20023;-71
2024/01/06 05:33:18;;;;;;;0.70;0.70;;;;;;;7.65;98.97;99150.66;4940525;28;20121;-70
2024/01/06 05:35:43;;;;;;;0.88;0.88;;;;;;;7.65;98.47;99154.19;4940401;29;20032;-70
2024/01/06 05:38:08;;;;;;;0.77;0.77;;;;;;;7.59;98.25;99157.06;4929561;29;20788;-70
2024/01/06 05:40:34;;;;;;;0.60;0.60;;;;;;;7.57;98.71;99161.53;4928025;29;20086;-71
2024/01/06 05:42:59;;;;;;;0.90;0.90;;;;;;;7.57;97.95;99164.19;4929372;29;20027;-70
2024/01/06 05:45:25;;;;;;;0.80;0.80;;;;;;;7.28;98.58;99116.66;4931545;29;20083;-70
2024/01/06 05:47:50;;;;;;;0.75;0.75;;;;;;;7.53;98.41;99162.53;4929220;29;20486;-70
2024/01/06 05:50:16;;;;;;;0.70;0.70;;;;;;;7.53;98.57;99166.97;4929985;29;20142;-71
2024/01/06 05:52:42;;;;;;;0.63;0.63;;;;;;;7.55;98.06;99160.72;4929748;29;20150;-70
2024/01/06 05:55:08;;;;;;;0.90;0.90;;;;;;;7.49;98.01;99176.81;4928962;29;20515;-70
2024/01/06 05:57:34;;;;;;;0.82;0.82;;;;;;;7.11;97.66;99107.56;4932903;28;20047;-71
2024/01/06 05:59:59;;;;;;;0.70;0.70;;;;;;;7.53;97.89;99185.47;4936146;28;20046;-70
2024/01/06 06:02:25;;;;;;;0.75;0.75;;;;;;;7.53;97.55;99191.66;4930134;29;20551;-71
2024/01/06 06:04:52;;;;;;;0.90;0.90;;;;;;;7.52;98.04;99200.50;4927040;29;20030;-70
2024/01/06 06:07:17;;;;;;;0.80;0.80;;;;;;;7.54;98.29;99197.81;4927133;29;20091;-70
2024/01/06 06:09:43;;;;;;;0.70;0.70;;;;;;;7.56;98.24;99206.56;4945463;28;20055;-70
2024/01/06 06:12:08;;;;;;;0.82;0.82;;;;;;;7.56;98.48;99207.41;4928136;29;20031;-69
2024/01/06 06:14:34;;;;;;;0.80;0.80;;;;;;;7.59;98.41;99207.34;4945476;29;20019;-69
2024/01/06 06:16:59;;;;;;;0.80;0.80;;;;;;;7.44;98.65;99169.94;4928765;29;20031;-69
2024/01/06 06:19:24;;;;;;;0.90;0.90;;;;;;;7.66;98.45;99208.00;4917718;28;20023;-71
2024/01/06 06:21:50;;;;;;;0.77;0.77;;;;;;;7.64;98.45;99210.66;4948512;29;20869;-71
2024/01/06 06:24:15;;;;;;;0.85;0.85;;;;;;;7.64;98.59;99220.41;4946988;29;20094;-70
2024/01/06 06:26:41;;;;;;;0.80;0.80;;;;;;;7.68;98.11;99214.94;4929351;29;20084;-69
2024/01/06 06:29:06;;;;;;;0.80;0.80;;;;;;;7.76;98.86;99222.63;4928999;29;20027;-70
2024/01/06 06:31:32;;;;;;;0.70;0.70;;;;;;;7.78;98.62;99226.97;4934768;28;20082;-70
2024/01/06 06:33:57;;;;;;;0.80;0.80;;;;;;;7.83;98.85;99232.09;4945213;28;20047;-70
2024/01/06 06:36:22;;;;;;;0.90;0.90;;;;;;;7.88;99.46;99240.75;4928428;29;20042;-71
2024/01/06 06:38:48;;;;;;;0.82;0.82;;;;;;;7.90;98.76;99245.09;4932802;29;20072;-71
2024/01/06 06:41:13;;;;;;;0.80;0.80;;;;;;;7.89;99.35;99245.13;4934690;29;20086;-69
2024/01/06 06:43:38;;;;;;;0.80;0.80;;;;;;;7.87;98.50;99237.22;4933284;29;20179;-70
2024/01/06 06:46:04;;;;;;;0.80;0.80;;;;;;;7.79;98.48;99225.19;4937745;29;20799;-70
2024/01/06 06:48:29;;;;;;;0.88;0.88;;;;;;;7.75;98.91;99242.94;4946029;28;20038;-69
2024/01/06 06:50:55;;;;;;;0.63;0.63;;;;;;;7.73;99.19;99236.84;4951728;29;20033;-71
2024/01/06 06:53:20;;;;;;;0.73;0.73;;;;;;;7.75;99.27;99239.44;4951410;29;20027;-70
2024/01/06 06:55:46;;;;;;;0.70;0.70;;;;;;;7.77;100.00;99243.78;4950611;28;20031;-70
2024/01/06 06:58:12;;;;;;;0.70;0.70;;;;;;;7.72;99.98;99253.66;4944581;29;20032;-71
2024/01/06 07:00:38;;;;;;;0.80;0.80;;;;;;;7.79;100.00;99263.09;4940334;29;20038;-70
2024/01/06 07:03:04;;;;;;;0.70;0.70;;;;;;;7.81;100.00;99265.69;4950424;29;20444;-67
2024/01/06 07:05:29;;;;;;;0.70;0.70;;;;;;;7.83;100.00;99269.16;4930731;29;20128;-69
2024/01/06 07:07:55;;;;;;;0.70;0.70;;;;;;;7.82;100.00;99270.91;4930785;29;20046;-71
2024/01/06 07:10:20;;;;;;;0.80;0.80;;;;;;;7.78;100.00;99271.09;4937233;29;20027;-69
2024/01/06 07:12:46;;;;;;;0.70;0.70;;;;;;;7.72;100.00;99281.88;4949379;29;20495;-71
2024/01/06 07:15:11;;;;;;;0.80;0.80;;;;;;;7.70;100.00;99284.59;4954337;28;20027;-71
2024/01/06 07:17:38;;;;;;;0.80;0.80;;;;;;;7.76;100.00;99284.38;4970024;28;20042;-70
2024/01/06 07:20:06;;;;;;;0.80;0.80;;;;;;;7.69;100.00;99279.34;4939766;29;20052;-70
2024/01/06 07:22:34;;;;;;;0.80;0.80;;;;;;;7.69;100.00;99282.00;4931326;29;20744;-70
2024/01/06 07:25:00;;;;;;;0.90;0.90;;;;;;;7.70;100.00;99287.22;4932519;29;20181;-69
2024/01/06 07:27:25;;;;;;;0.88;0.88;;;;;;;7.74;100.00;99285.34;4950078;28;20023;-70
2024/01/06 07:29:50;;;;;;;0.90;0.90;;;;;;;7.81;100.00;99289.50;4968948;28;20510;-69
2024/01/06 07:32:16;;;;;;;0.77;0.77;;;;;;;7.84;100.00;99290.28;4969109;28;20526;-69
2024/01/06 07:34:43;;;;;;;0.80;0.80;;;;;;;7.84;100.00;99294.72;4949707;28;20428;-70
2024/01/06 07:37:08;;;;;;;0.80;0.80;;;;;;;7.88;100.00;99299.00;4936499;28;20035;-71
2024/01/06 07:39:34;;;;;;;0.70;0.70;;;;;;;7.90;100.00;99297.16;4963322;28;20071;-71
2024/01/06 07:41:59;;;;;;;0.80;0.80;;;;;;;7.88;100.00;99299.88;4931569;29;20044;-71
2024/01/06 07:44:26;;;;;;;0.80;0.80;;;;;;;7.90;100.00;99295.38;4932550;29;20034;-71
2024/01/06 07:46:52;;;;;;;0.80;0.80;;;;;;;7.92;100.00;99301.47;4933872;29;20138;-71
2024/01/06 07:49:18;;;;;;;0.90;0.90;;;;;;;7.92;100.00;99304.13;4930961;29;20027;-71
2024/01/06 07:51:43;;;;;;;0.80;0.80;;;;;;;7.92;100.00;99306.78;4931502;29;20047;-70
2024/01/06 07:54:09;;;;;;;0.80;0.80;;;;;;;7.85;100.00;99310.56;4930627;29;20035;-70
2024/01/06 07:56:35;;;;;;;0.80;0.80;;;;;;;7.86;100.00;99306.97;4929493;29;20099;-67
2024/01/06 07:59:02;;;;;;;0.80;0.80;;;;;;;7.83;100.00;99317.69;4928978;29;20028;-70
2024/01/06 08:01:27;;;;;;;0.77;0.77;;;;;;;7.86;100.00;99322.88;4954629;28;20033;-70
2024/01/06 08:03:52;;;;;;;0.75;0.75;;;;;;;7.88;100.00;99321.03;4950708;28;20027;-70
2024/01/06 08:06:18;;;;;;;0.80;0.80;;;;;;;7.66;100.00;99279.44;4954279;28;20030;-69
2024/01/06 08:08:45;;;;;;;0.80;0.80;;;;;;;7.41;100.00;99244.09;4930889;29;20036;-70
2024/01/06 08:11:11;;;;;;;0.80;0.80;;;;;;;7.87;100.00;99319.28;4948751;29;20120;-69
2024/01/06 08:13:37;;;;;;;0.80;0.80;;;;;;;7.95;100.00;99327.00;4950054;29;20051;-70
2024/01/06 08:16:03;;;;;;;0.82;0.82;;;;;;;7.75;100.00;99287.06;4938552;29;20632;-70
2024/01/06 08:18:28;;;;;;;0.73;0.73;;;;;;;7.96;100.00;99324.31;4930831;29;20036;-70
2024/01/06 08:20:54;;;;;;;0.90;0.90;;;;;;;7.99;100.00;99325.97;4945978;28;20027;-68
2024/01/06 08:23:20;;;;;;;0.80;0.80;;;;;;;8.02;100.00;99318.78;4949679;29;20023;-70
2024/01/06 08:25:46;;;;;;;0.75;0.75;;;;;;;7.87;100.00;99279.56;4949197;28;20031;-71
2024/01/06 08:28:11;;;;;;;0.90;0.90;;;;;;;8.03;100.00;99317.00;4949008;29;20023;-71
2024/01/06 08:30:37;;;;;;;0.70;0.70;;;;;;;8.07;100.00;99330.09;4945974;29;20031;-69
2024/01/06 08:33:02;;;;;;;0.80;0.80;;;;;;;7.74;100.00;99291.50;4949851;29;20031;-70
2024/01/06 08:35:28;;;;;;;0.70;0.70;;;;;;;7.92;100.00;99332.41;4949727;29;20035;-70
2024/01/06 08:37:53;;;;;;;0.70;0.70;;;;;;;8.02;100.00;99347.91;4949294;29;20495;-70
2024/01/06 08:40:19;;;;;;;0.90;0.90;;;;;;;8.03;100.00;99340.84;4937572;29;20488;-70
2024/01/06 08:42:44;;;;;;;0.77;0.77;;;;;;;8.00;100.00;99346.25;4946108;28;20073;-71
2024/01/06 08:45:09;;;;;;;0.80;0.80;;;;;;;7.64;100.00;99278.63;4943350;29;20122;-70
2024/01/06 08:47:35;;;;;;;0.80;0.80;;;;;;;8.01;100.00;99348.84;4930141;29;20042;-69
2024/01/06 08:50:00;;;;;;;0.90;0.90;;;;;;;7.97;100.00;99344.56;4957954;28;20038;-70
2024/01/06 08:52:26;;;;;;;0.90;0.90;;;;;;;8.00;100.00;99352.44;4954021;28;20019;-70
2024/01/06 08:54:52;;;;;;;0.70;0.70;;;;;;;7.96;100.00;99356.06;4944005;29;20040;-70
2024/01/06 08:57:18;;;;;;;0.80;0.80;;;;;;;7.98;100.00;99359.56;4942376;29;20087;-70
2024/01/06 08:59:45;;;;;;;0.80;0.80;;;;;;;7.91;100.00;99357.13;4948711;28;20022;-70
2024/01/06 09:02:10;;;;;;;0.70;0.70;;;;;;;7.90;100.00;99356.28;4948076;28;20031;-69
2024/01/06 09:04:36;;;;;;;0.75;0.75;;;;;;;7.97;100.00;99365.75;4948026;29;20082;-63
2024/01/06 09:07:01;;;;;;;0.80;0.80;;;;;;;8.03;100.00;99378.81;4932380;29;20529;-63
2024/01/06 09:09:28;;;;;;;0.90;0.90;;;;;;;8.07;100.00;99369.81;4947906;29;20043;-63
2024/01/06 09:11:53;;;;;;;0.82;0.82;;;;;;;8.20;100.00;99364.13;4947237;28;20567;-64
2024/01/06 09:14:19;;;;;;;0.80;0.80;;;;;;;8.30;100.00;99370.88;4946969;29;20046;-63
2024/01/06 09:16:44;;;;;;;0.80;0.80;;;;;;;8.27;100.00;99365.69;4967478;28;20033;-63
2024/01/06 09:19:10;;;;;;;0.90;0.90;;;;;;;8.31;100.00;99369.97;4966304;28;20049;-63
2024/01/06 09:21:35;;;;;;;0.68;0.68;;;;;;;8.31;100.00;99372.59;4958997;28;20023;-64
2024/01/06 09:24:06;;;;;;;0.80;0.80;;;;;;;8.30;100.00;99377.06;4981848;28;20030;-63
2024/01/06 09:26:35;;;;;;;0.80;0.80;;;;;;;7.99;100.00;99324.19;4966441;28;20050;-63
2024/01/06 09:29:02;;;;;;;0.80;0.80;;;;;;;8.45;100.00;99380.97;4947561;28;20031;-63
2024/01/06 09:31:27;;;;;;;0.80;0.80;;;;;;;8.50;100.00;99381.69;4947237;29;20042;-63
2024/01/06 09:33:53;;;;;;;0.75;0.75;;;;;;;8.53;100.00;99382.44;4950781;28;20023;-64
2024/01/06 09:36:18;;;;;;;0.80;0.80;;;;;;;8.16;100.00;99344.81;4947968;28;20232;-63
2024/01/06 09:38:44;;;;;;;0.77;0.77;;;;;;;8.43;100.00;99388.97;4955427;28;20037;-64
2024/01/06 09:41:09;;;;;;;0.80;0.80;;;;;;;8.49;100.00;99393.19;4948038;29;20023;-64
2024/01/06 09:43:35;;;;;;;0.80;0.80;;;;;;;8.47;100.00;99387.06;4948310;29;20399;-64
2024/01/06 09:46:14;;;;;;;0.77;0.77;;;;;;;8.37;100.00;99399.75;4959395;28;20098;-64
2024/01/06 09:48:43;;;;;;;0.80;0.80;;;;;;;8.42;100.00;99396.97;4967371;28;20162;-64
2024/01/06 09:51:12;;;;;;;0.90;0.90;;;;;;;8.45;100.00;99402.16;4960454;28;20126;-63
2024/01/06 09:53:47;;;;;;;0.60;0.60;;;;;;;8.51;100.00;99396.66;4947093;29;20042;-63
2024/01/06 09:56:14;;;;;;;0.65;0.65;;;;;;;8.57;100.00;99385.81;4941326;29;20079;-63
2024/01/06 09:58:41;;;;;;;0.88;0.88;;;;;;;8.62;100.00;99384.75;4945684;28;20043;-63
2024/01/06 10:01:08;;;;;;;0.77;0.77;;;;;;;8.72;100.00;99385.31;4947919;28;20031;-64
2024/01/06 10:03:35;;;;;;;0.90;0.90;;;;;;;8.82;100.00;99381.41;4946939;29;20507;-63
2024/01/06 10:06:03;;;;;;;0.60;0.60;;;;;;;8.83;99.93;99377.84;4944485;29;20558;-64
2024/01/06 10:08:29;;;;;;;0.70;0.70;;;;;;;8.88;99.61;99378.56;4947909;29;20035;-63
2024/01/06 10:10:55;;;;;;;0.60;0.60;;;;;;;8.80;98.51;99383.25;4948620;29;20059;-64
2024/01/06 10:13:20;;;;;;;0.60;0.60;;;;;;;8.82;98.71;99386.72;4936963;29;20110;-63
2024/01/06 10:15:46;;;;;;;0.80;0.80;;;;;;;8.87;98.04;99384.75;4945276;28;20093;-70
2024/01/06 10:18:12;;;;;;;0.82;0.82;;;;;;;8.90;98.60;99388.16;4955778;28;20039;-71
2024/01/06 10:20:38;;;;;;;0.80;0.80;;;;;;;8.89;98.30;99382.94;4932725;29;20099;-71
2024/01/06 10:23:07;;;;;;;0.90;0.90;;;;;;;8.92;98.02;99382.81;4933124;29;20567;-71
2024/01/06 10:25:32;;;;;;;0.70;0.70;;;;;;;8.90;98.05;99379.34;4935530;29;20032;-70
2024/01/06 10:28:02;;;;;;;0.70;0.70;;;;;;;8.90;97.85;99384.66;4953455;28;20387;-71
2024/01/06 10:30:28;;;;;;;0.80;0.80;;;;;;;8.89;97.85;99385.59;4942889;29;20028;-71
2024/01/06 10:32:54;;;;;;;0.73;0.73;;;;;;;8.89;98.09;99385.59;4941108;28;20033;-70
2024/01/06 10:35:19;;;;;;;0.73;0.73;;;;;;;8.94;97.88;99388.94;4934095;28;20775;-71
2024/01/06 10:37:45;;;;;;;0.80;0.80;;;;;;;8.89;97.66;99388.22;4939216;29;20046;-70
2024/01/06 10:40:13;;;;;;;0.70;0.70;;;;;;;8.88;97.80;99389.16;4953712;28;20023;-70
2024/01/06 10:42:40;;;;;;;0.80;0.80;;;;;;;8.93;97.85;99389.84;4946586;28;20023;-71
2024/01/06 10:45:11;;;;;;;0.77;0.77;;;;;;;8.51;97.97;99309.19;4947968;28;20027;-71
2024/01/06 10:47:38;;;;;;;0.82;0.82;;;;;;;8.88;97.77;99386.50;4949135;29;20027;-68
2024/01/06 10:50:04;;;;;;;0.70;0.70;;;;;;;8.86;98.16;99388.34;4948126;29;20042;-71
2024/01/06 10:52:31;;;;;;;0.70;0.70;;;;;;;8.85;97.78;99381.28;4949255;29;20078;-71
2024/01/06 10:54:57;;;;;;;0.80;0.80;;;;;;;8.87;98.08;99387.41;4950997;28;20027;-70
2024/01/06 10:57:23;;;;;;;0.80;0.80;;;;;;;8.83;98.21;99388.47;4940301;28;20079;-71
2024/01/06 10:59:51;;;;;;;0.80;0.80;;;;;;;8.84;98.35;99390.19;4943327;28;20036;-70
2024/01/06 11:02:17;;;;;;;0.80;0.80;;;;;;;8.79;98.30;99387.69;4948465;29;20498;-70
2024/01/06 11:04:47;;;;;;;0.80;0.80;;;;;;;8.74;98.40;99394.94;4942146;29;20031;-71
2024/01/06 11:07:26;;;;;;;0.70;0.70;;;;;;;8.69;98.64;99390.72;4931224;29;20030;-70
2024/01/06 11:10:05;;;;;;;0.80;0.80;;;;;;;8.66;98.99;99391.72;4937456;29;20059;-71
2024/01/06 11:12:30;;;;;;;0.70;0.70;;;;;;;8.64;98.76;99390.88;4942088;28;20075;-71
2024/01/06 11:14:56;;;;;;;0.80;0.80;;;;;;;8.71;99.31;99389.75;4951458;28;20031;-70
2024/01/06 11:17:55;;;;;;;0.70;0.70;;;;;;;8.73;98.95;99381.75;4949458;29;20755;-70
2024/01/06 11:20:26;;;;;;;0.77;0.77;;;;;;;8.78;99.25;99382.44;4921832;28;20386;-71
2024/01/06 11:22:52;;;;;;;0.80;0.80;;;;;;;8.78;99.04;99379.81;4944829;28;20027;-70
2024/01/06 11:25:22;;;;;;;0.80;0.80;;;;;;;8.83;99.51;99375.19;4939931;29;20027;-70
2024/01/06 11:27:49;;;;;;;0.63;0.63;;;;;;;8.85;99.05;99375.97;4940473;28;20134;-67
2024/01/06 11:30:24;;;;;;;0.80;0.80;;;;;;;8.71;99.30;99378.28;4937963;29;20026;-70